Accueil
METAR-TAF:

METAR-TAF

Aéroports :

Büchel, Allemagne

Base aérienne de Büchel

latitude: 50-10N, longitude: 007-04E, altitude: 478 m

Observation

Le bulletin a été fait il y a 12 minutes, à 00:20 UTC
Vent 13 kt de est/nord-est
Température -6°C
Humidité 62%
Pression 1017 hPa
Visibilité 10 km ou plus

METAR: ETSB 240020Z AUTO 06013KT 9999 // ////// M06/M12 Q1017 ///

Heure: 01:32 (00:32 UTC)

Prévision

Le bulletin a été fait il y a 13 heures et 32 minutes, à 11:00 UTC
Prévision valable du 23 à 09 UTC au 23 à 18 UTC
Vent 15 kt de est/nord-est avec des rafales jusqu'à 30 kt
Visibilité: 1100 m
Ciel clair

TAF: ETSB 231100Z 2309/2318 06015G30KT 9999 NSW SKC CANCEL 1100 BY ETGL

Observations et prévisions météorologiques de plus de 4000 aéroports (messages METAR et TAF).

Les stations disponibles sont représentées par des disques jaunes et rouges sur la carte.

Passer la souris dessus pour voir le nom de la station.

Cliquer dessus pour voir les observations et prévisions météorologiques.

Pour changer de carte: cliquez sur les boutons verts avec une croix noire pour zoomer, sur le bouton vert avec un tiret pour effectuer un zoom arrière, ou sur les flèches vertes pour les cartes adjacentes.


METAR-TAF: